sensor_id;sensor_type;location;lat;lon;timestamp;P1;durP1;ratioP1;P2;durP2;ratioP2
38513;SDS011;24282;48.400;10.808;2023-01-13T00:01:15;2.27;;;0.97;;
38513;SDS011;24282;48.400;10.808;2023-01-13T00:03:43;2.27;;;0.90;;
38513;SDS011;24282;48.400;10.808;2023-01-13T00:06:13;1.83;;;1.00;;
38513;SDS011;24282;48.400;10.808;2023-01-13T00:08:43;1.30;;;0.80;;
38513;SDS011;24282;48.400;10.808;2023-01-13T00:11:13;1.10;;;0.77;;
38513;SDS011;24282;48.400;10.808;2023-01-13T00:13:38;2.33;;;0.90;;
38513;SDS011;24282;48.400;10.808;2023-01-13T00:16:05;2.53;;;0.77;;
38513;SDS011;24282;48.400;10.808;2023-01-13T00:18:33;2.63;;;0.93;;
38513;SDS011;24282;48.400;10.808;2023-01-13T00:23:28;3.03;;;0.80;;
38513;SDS011;24282;48.400;10.808;2023-01-13T00:26:00;1.23;;;0.90;;
38513;SDS011;24282;48.400;10.808;2023-01-13T00:28:27;2.80;;;0.80;;
38513;SDS011;24282;48.400;10.808;2023-01-13T00:30:53;1.50;;;0.80;;
38513;SDS011;24282;48.400;10.808;2023-01-13T00:33:23;2.90;;;0.83;;
38513;SDS011;24282;48.400;10.808;2023-01-13T00:35:56;2.27;;;0.70;;
38513;SDS011;24282;48.400;10.808;2023-01-13T00:38:25;3.97;;;0.70;;
38513;SDS011;24282;48.400;10.808;2023-01-13T00:40:58;1.83;;;0.80;;
38513;SDS011;24282;48.400;10.808;2023-01-13T00:43:32;2.20;;;0.80;;
38513;SDS011;24282;48.400;10.808;2023-01-13T00:46:06;2.37;;;0.80;;
38513;SDS011;24282;48.400;10.808;2023-01-13T00:48:33;2.53;;;0.80;;
38513;SDS011;24282;48.400;10.808;2023-01-13T00:53:40;4.03;;;0.73;;
38513;SDS011;24282;48.400;10.808;2023-01-13T00:56:13;1.13;;;0.63;;
38513;SDS011;24282;48.400;10.808;2023-01-13T00:58:41;2.93;;;0.80;;
38513;SDS011;24282;48.400;10.808;2023-01-13T01:01:13;1.50;;;1.00;;
38513;SDS011;24282;48.400;10.808;2023-01-13T01:03:40;0.80;;;0.67;;
38513;SDS011;24282;48.400;10.808;2023-01-13T01:06:15;1.97;;;1.10;;
38513;SDS011;24282;48.400;10.808;2023-01-13T01:08:43;1.93;;;0.83;;
38513;SDS011;24282;48.400;10.808;2023-01-13T01:11:11;1.60;;;0.90;;
38513;SDS011;24282;48.400;10.808;2023-01-13T01:13:41;1.80;;;0.77;;
38513;SDS011;24282;48.400;10.808;2023-01-13T01:16:09;2.97;;;0.80;;
38513;SDS011;24282;48.400;10.808;2023-01-13T01:18:37;1.23;;;0.80;;
38513;SDS011;24282;48.400;10.808;2023-01-13T01:21:04;1.53;;;0.80;;
38513;SDS011;24282;48.400;10.808;2023-01-13T01:23:31;3.27;;;0.80;;
38513;SDS011;24282;48.400;10.808;2023-01-13T01:26:01;2.67;;;0.67;;
38513;SDS011;24282;48.400;10.808;2023-01-13T01:28:29;2.03;;;0.80;;
38513;SDS011;24282;48.400;10.808;2023-01-13T01:30:54;7.13;;;4.03;;
38513;SDS011;24282;48.400;10.808;2023-01-13T01:33:22;8.07;;;4.60;;
38513;SDS011;24282;48.400;10.808;2023-01-13T01:35:48;4.97;;;1.60;;
38513;SDS011;24282;48.400;10.808;2023-01-13T01:38:14;2.10;;;0.77;;
38513;SDS011;24282;48.400;10.808;2023-01-13T01:40:39;1.17;;;0.60;;
38513;SDS011;24282;48.400;10.808;2023-01-13T01:43:11;1.43;;;0.60;;
38513;SDS011;24282;48.400;10.808;2023-01-13T01:46:02;2.17;;;0.70;;
38513;SDS011;24282;48.400;10.808;2023-01-13T01:48:28;2.53;;;0.70;;
38513;SDS011;24282;48.400;10.808;2023-01-13T01:50:58;1.57;;;0.70;;
38513;SDS011;24282;48.400;10.808;2023-01-13T01:53:24;1.87;;;0.83;;
38513;SDS011;24282;48.400;10.808;2023-01-13T01:55:51;1.97;;;0.60;;
38513;SDS011;24282;48.400;10.808;2023-01-13T01:58:19;1.93;;;0.70;;
38513;SDS011;24282;48.400;10.808;2023-01-13T02:00:50;2.37;;;0.80;;
38513;SDS011;24282;48.400;10.808;2023-01-13T02:03:16;2.27;;;0.70;;
38513;SDS011;24282;48.400;10.808;2023-01-13T02:05:42;0.90;;;0.60;;
38513;SDS011;24282;48.400;10.808;2023-01-13T02:08:09;3.17;;;0.80;;
38513;SDS011;24282;48.400;10.808;2023-01-13T02:10:37;2.03;;;1.00;;
38513;SDS011;24282;48.400;10.808;2023-01-13T02:13:05;1.30;;;0.50;;
38513;SDS011;24282;48.400;10.808;2023-01-13T02:15:37;1.90;;;0.87;;
38513;SDS011;24282;48.400;10.808;2023-01-13T02:32:26;1.23;;;0.80;;
38513;SDS011;24282;48.400;10.808;2023-01-13T02:35:11;1.97;;;0.70;;
38513;SDS011;24282;48.400;10.808;2023-01-13T02:37:45;2.37;;;0.73;;
38513;SDS011;24282;48.400;10.808;2023-01-13T02:40:59;1.47;;;0.80;;
38513;SDS011;24282;48.400;10.808;2023-01-13T02:43:13;1.07;;;0.60;;
38513;SDS011;24282;48.400;10.808;2023-01-13T02:46:12;1.77;;;0.77;;
38513;SDS011;24282;48.400;10.808;2023-01-13T02:48:44;4.20;;;1.10;;
38513;SDS011;24282;48.400;10.808;2023-01-13T02:51:15;3.80;;;1.00;;
38513;SDS011;24282;48.400;10.808;2023-01-13T02:53:51;1.77;;;0.73;;
38513;SDS011;24282;48.400;10.808;2023-01-13T02:56:23;1.17;;;0.60;;
38513;SDS011;24282;48.400;10.808;2023-01-13T02:58:50;0.70;;;0.60;;
38513;SDS011;24282;48.400;10.808;2023-01-13T03:01:18;0.80;;;0.60;;
38513;SDS011;24282;48.400;10.808;2023-01-13T03:03:44;2.23;;;0.80;;
38513;SDS011;24282;48.400;10.808;2023-01-13T03:11:54;1.43;;;0.50;;
38513;SDS011;24282;48.400;10.808;2023-01-13T03:14:34;1.40;;;0.83;;
38513;SDS011;24282;48.400;10.808;2023-01-13T03:22:25;1.13;;;0.60;;
38513;SDS011;24282;48.400;10.808;2023-01-13T03:25:06;1.50;;;0.60;;
38513;SDS011;24282;48.400;10.808;2023-01-13T03:27:58;2.97;;;0.90;;
38513;SDS011;24282;48.400;10.808;2023-01-13T03:33:15;2.33;;;0.90;;
38513;SDS011;24282;48.400;10.808;2023-01-13T03:35:47;0.97;;;0.70;;
38513;SDS011;24282;48.400;10.808;2023-01-13T03:38:16;1.03;;;0.50;;
38513;SDS011;24282;48.400;10.808;2023-01-13T03:40:53;1.67;;;0.63;;
38513;SDS011;24282;48.400;10.808;2023-01-13T03:43:30;2.53;;;0.67;;
38513;SDS011;24282;48.400;10.808;2023-01-13T03:46:21;0.90;;;0.60;;
38513;SDS011;24282;48.400;10.808;2023-01-13T03:48:53;0.93;;;0.60;;
38513;SDS011;24282;48.400;10.808;2023-01-13T03:51:23;2.07;;;0.80;;
38513;SDS011;24282;48.400;10.808;2023-01-13T03:53:53;2.57;;;0.70;;
38513;SDS011;24282;48.400;10.808;2023-01-13T03:58:50;2.70;;;0.90;;
38513;SDS011;24282;48.400;10.808;2023-01-13T04:01:23;1.53;;;0.73;;
38513;SDS011;24282;48.400;10.808;2023-01-13T04:04:00;1.00;;;0.60;;
38513;SDS011;24282;48.400;10.808;2023-01-13T04:06:40;1.53;;;0.60;;
38513;SDS011;24282;48.400;10.808;2023-01-13T04:09:18;2.03;;;0.77;;
38513;SDS011;24282;48.400;10.808;2023-01-13T04:11:50;0.80;;;0.43;;
38513;SDS011;24282;48.400;10.808;2023-01-13T04:14:23;2.53;;;0.70;;
38513;SDS011;24282;48.400;10.808;2023-01-13T04:16:53;0.90;;;0.57;;
38513;SDS011;24282;48.400;10.808;2023-01-13T04:19:20;2.40;;;0.70;;
38513;SDS011;24282;48.400;10.808;2023-01-13T04:21:46;1.57;;;0.70;;
38513;SDS011;24282;48.400;10.808;2023-01-13T04:24:12;0.93;;;0.53;;
38513;SDS011;24282;48.400;10.808;2023-01-13T04:26:37;2.13;;;0.73;;
38513;SDS011;24282;48.400;10.808;2023-01-13T04:29:03;2.70;;;0.97;;
38513;SDS011;24282;48.400;10.808;2023-01-13T04:31:29;2.60;;;0.83;;
38513;SDS011;24282;48.400;10.808;2023-01-13T04:33:55;1.00;;;0.70;;
38513;SDS011;24282;48.400;10.808;2023-01-13T04:36:21;2.97;;;0.90;;
38513;SDS011;24282;48.400;10.808;2023-01-13T04:38:51;1.33;;;0.70;;
38513;SDS011;24282;48.400;10.808;2023-01-13T04:41:18;1.60;;;0.70;;
38513;SDS011;24282;48.400;10.808;2023-01-13T04:43:44;1.53;;;0.53;;
38513;SDS011;24282;48.400;10.808;2023-01-13T04:46:10;0.97;;;0.60;;
38513;SDS011;24282;48.400;10.808;2023-01-13T04:48:35;2.83;;;0.70;;
38513;SDS011;24282;48.400;10.808;2023-01-13T04:51:01;1.23;;;0.67;;
38513;SDS011;24282;48.400;10.808;2023-01-13T04:53:27;2.53;;;0.70;;
38513;SDS011;24282;48.400;10.808;2023-01-13T04:55:52;3.70;;;0.63;;
38513;SDS011;24282;48.400;10.808;2023-01-13T04:58:19;0.67;;;0.57;;
38513;SDS011;24282;48.400;10.808;2023-01-13T05:00:45;1.40;;;0.70;;
38513;SDS011;24282;48.400;10.808;2023-01-13T05:03:11;1.37;;;0.73;;
38513;SDS011;24282;48.400;10.808;2023-01-13T05:05:36;1.00;;;0.60;;
38513;SDS011;24282;48.400;10.808;2023-01-13T05:08:03;2.93;;;0.93;;
38513;SDS011;24282;48.400;10.808;2023-01-13T05:10:29;2.47;;;0.90;;
38513;SDS011;24282;48.400;10.808;2023-01-13T05:12:55;1.93;;;1.17;;
38513;SDS011;24282;48.400;10.808;2023-01-13T05:15:40;1.10;;;0.60;;
38513;SDS011;24282;48.400;10.808;2023-01-13T05:18:24;1.57;;;0.83;;
38513;SDS011;24282;48.400;10.808;2023-01-13T05:20:52;1.37;;;0.87;;
38513;SDS011;24282;48.400;10.808;2023-01-13T05:23:17;2.17;;;0.80;;
38513;SDS011;24282;48.400;10.808;2023-01-13T05:26:01;1.83;;;0.70;;
38513;SDS011;24282;48.400;10.808;2023-01-13T05:28:31;3.40;;;0.70;;
38513;SDS011;24282;48.400;10.808;2023-01-13T05:30:58;1.03;;;0.40;;
38513;SDS011;24282;48.400;10.808;2023-01-13T05:33:24;2.53;;;0.60;;
38513;SDS011;24282;48.400;10.808;2023-01-13T05:35:49;1.27;;;0.70;;
38513;SDS011;24282;48.400;10.808;2023-01-13T05:38:15;1.63;;;0.60;;
38513;SDS011;24282;48.400;10.808;2023-01-13T05:40:42;2.70;;;1.07;;
38513;SDS011;24282;48.400;10.808;2023-01-13T05:43:27;1.87;;;1.00;;
38513;SDS011;24282;48.400;10.808;2023-01-13T05:45:57;4.00;;;0.70;;
38513;SDS011;24282;48.400;10.808;2023-01-13T05:48:26;1.10;;;0.70;;
38513;SDS011;24282;48.400;10.808;2023-01-13T05:50:56;0.57;;;0.40;;
38513;SDS011;24282;48.400;10.808;2023-01-13T05:53:22;0.57;;;0.53;;
38513;SDS011;24282;48.400;10.808;2023-01-13T05:55:49;3.50;;;1.33;;
38513;SDS011;24282;48.400;10.808;2023-01-13T05:58:15;3.53;;;1.10;;
38513;SDS011;24282;48.400;10.808;2023-01-13T06:00:42;1.57;;;0.70;;
38513;SDS011;24282;48.400;10.808;2023-01-13T06:03:09;1.87;;;0.60;;
38513;SDS011;24282;48.400;10.808;2023-01-13T06:05:35;1.50;;;0.70;;
38513;SDS011;24282;48.400;10.808;2023-01-13T06:08:02;1.90;;;0.70;;
38513;SDS011;24282;48.400;10.808;2023-01-13T06:10:30;0.77;;;0.63;;
38513;SDS011;24282;48.400;10.808;2023-01-13T06:12:56;1.53;;;0.83;;
38513;SDS011;24282;48.400;10.808;2023-01-13T06:15:22;2.17;;;0.63;;
38513;SDS011;24282;48.400;10.808;2023-01-13T06:17:47;1.83;;;1.03;;
38513;SDS011;24282;48.400;10.808;2023-01-13T06:20:13;1.37;;;0.70;;
38513;SDS011;24282;48.400;10.808;2023-01-13T06:22:41;1.40;;;0.80;;
38513;SDS011;24282;48.400;10.808;2023-01-13T06:25:20;1.70;;;0.67;;
38513;SDS011;24282;48.400;10.808;2023-01-13T06:27:50;1.30;;;0.63;;
38513;SDS011;24282;48.400;10.808;2023-01-13T06:30:17;1.90;;;0.53;;
38513;SDS011;24282;48.400;10.808;2023-01-13T06:32:51;1.63;;;0.60;;
38513;SDS011;24282;48.400;10.808;2023-01-13T06:35:20;2.30;;;0.70;;
38513;SDS011;24282;48.400;10.808;2023-01-13T06:37:51;1.53;;;0.60;;
38513;SDS011;24282;48.400;10.808;2023-01-13T06:40:20;1.27;;;0.60;;
38513;SDS011;24282;48.400;10.808;2023-01-13T06:42:46;1.30;;;0.80;;
38513;SDS011;24282;48.400;10.808;2023-01-13T06:45:31;0.87;;;0.70;;
38513;SDS011;24282;48.400;10.808;2023-01-13T06:47:58;1.37;;;0.70;;
38513;SDS011;24282;48.400;10.808;2023-01-13T06:50:25;1.10;;;0.60;;
38513;SDS011;24282;48.400;10.808;2023-01-13T06:52:51;1.30;;;0.60;;
38513;SDS011;24282;48.400;10.808;2023-01-13T06:55:17;0.70;;;0.50;;
38513;SDS011;24282;48.400;10.808;2023-01-13T06:57:46;3.40;;;0.80;;
38513;SDS011;24282;48.400;10.808;2023-01-13T07:00:13;2.60;;;1.50;;
38513;SDS011;24282;48.400;10.808;2023-01-13T07:02:39;2.07;;;0.60;;
38513;SDS011;24282;48.400;10.808;2023-01-13T07:05:05;0.60;;;0.50;;
38513;SDS011;24282;48.400;10.808;2023-01-13T07:07:31;1.13;;;0.73;;
38513;SDS011;24282;48.400;10.808;2023-01-13T07:09:57;2.50;;;0.80;;
38513;SDS011;24282;48.400;10.808;2023-01-13T07:12:23;1.70;;;0.50;;
38513;SDS011;24282;48.400;10.808;2023-01-13T07:14:49;2.37;;;0.80;;
38513;SDS011;24282;48.400;10.808;2023-01-13T07:17:34;1.00;;;0.57;;
38513;SDS011;24282;48.400;10.808;2023-01-13T07:19:59;3.07;;;0.83;;
38513;SDS011;24282;48.400;10.808;2023-01-13T07:22:25;0.73;;;0.60;;
38513;SDS011;24282;48.400;10.808;2023-01-13T07:24:51;1.17;;;0.63;;
38513;SDS011;24282;48.400;10.808;2023-01-13T07:27:16;1.40;;;0.70;;
38513;SDS011;24282;48.400;10.808;2023-01-13T07:29:42;1.07;;;0.60;;
38513;SDS011;24282;48.400;10.808;2023-01-13T07:32:08;1.63;;;0.70;;
38513;SDS011;24282;48.400;10.808;2023-01-13T07:34:34;2.97;;;0.70;;
38513;SDS011;24282;48.400;10.808;2023-01-13T07:37:00;2.10;;;0.50;;
38513;SDS011;24282;48.400;10.808;2023-01-13T07:39:26;1.60;;;0.80;;
38513;SDS011;24282;48.400;10.808;2023-01-13T07:41:51;1.50;;;0.80;;
38513;SDS011;24282;48.400;10.808;2023-01-13T07:44:36;1.87;;;1.03;;
38513;SDS011;24282;48.400;10.808;2023-01-13T07:47:02;1.70;;;1.00;;
38513;SDS011;24282;48.400;10.808;2023-01-13T07:49:30;2.03;;;0.80;;
38513;SDS011;24282;48.400;10.808;2023-01-13T07:51:55;1.07;;;0.60;;
38513;SDS011;24282;48.400;10.808;2023-01-13T07:54:21;2.30;;;0.80;;
38513;SDS011;24282;48.400;10.808;2023-01-13T07:56:47;1.60;;;0.53;;
38513;SDS011;24282;48.400;10.808;2023-01-13T07:59:13;1.97;;;0.70;;
38513;SDS011;24282;48.400;10.808;2023-01-13T08:01:38;1.00;;;0.60;;
38513;SDS011;24282;48.400;10.808;2023-01-13T08:04:04;1.73;;;0.80;;
38513;SDS011;24282;48.400;10.808;2023-01-13T08:06:30;1.43;;;0.70;;
38513;SDS011;24282;48.400;10.808;2023-01-13T08:08:55;1.50;;;0.60;;
38513;SDS011;24282;48.400;10.808;2023-01-13T08:11:22;1.30;;;0.70;;
38513;SDS011;24282;48.400;10.808;2023-01-13T08:13:48;4.80;;;1.10;;
38513;SDS011;24282;48.400;10.808;2023-01-13T08:16:14;1.00;;;0.67;;
38513;SDS011;24282;48.400;10.808;2023-01-13T08:18:40;1.33;;;0.80;;
38513;SDS011;24282;48.400;10.808;2023-01-13T08:21:08;0.60;;;0.60;;
38513;SDS011;24282;48.400;10.808;2023-01-13T08:23:36;1.07;;;0.70;;
38513;SDS011;24282;48.400;10.808;2023-01-13T08:26:12;1.97;;;1.00;;
38513;SDS011;24282;48.400;10.808;2023-01-13T08:28:40;1.00;;;0.60;;
38513;SDS011;24282;48.400;10.808;2023-01-13T08:31:07;1.10;;;0.60;;
38513;SDS011;24282;48.400;10.808;2023-01-13T08:33:35;3.40;;;1.33;;
38513;SDS011;24282;48.400;10.808;2023-01-13T08:36:05;3.30;;;0.83;;
38513;SDS011;24282;48.400;10.808;2023-01-13T08:38:33;1.57;;;0.60;;
38513;SDS011;24282;48.400;10.808;2023-01-13T08:41:00;1.67;;;0.70;;
38513;SDS011;24282;48.400;10.808;2023-01-13T08:43:32;1.47;;;0.60;;
38513;SDS011;24282;48.400;10.808;2023-01-13T08:45:58;1.47;;;0.80;;
38513;SDS011;24282;48.400;10.808;2023-01-13T08:48:26;3.07;;;0.73;;
38513;SDS011;24282;48.400;10.808;2023-01-13T08:50:52;1.50;;;0.87;;
38513;SDS011;24282;48.400;10.808;2023-01-13T08:53:18;1.40;;;0.90;;
38513;SDS011;24282;48.400;10.808;2023-01-13T08:55:45;2.33;;;0.90;;
38513;SDS011;24282;48.400;10.808;2023-01-13T08:58:11;2.20;;;0.60;;
38513;SDS011;24282;48.400;10.808;2023-01-13T09:00:37;1.07;;;0.60;;
38513;SDS011;24282;48.400;10.808;2023-01-13T09:03:03;1.77;;;0.40;;
38513;SDS011;24282;48.400;10.808;2023-01-13T09:05:29;1.63;;;0.70;;
38513;SDS011;24282;48.400;10.808;2023-01-13T09:07:54;1.77;;;0.70;;
38513;SDS011;24282;48.400;10.808;2023-01-13T09:10:20;1.40;;;0.67;;
38513;SDS011;24282;48.400;10.808;2023-01-13T09:12:46;3.23;;;0.67;;
38513;SDS011;24282;48.400;10.808;2023-01-13T09:15:30;1.03;;;0.63;;
38513;SDS011;24282;48.400;10.808;2023-01-13T09:17:56;0.87;;;0.67;;
38513;SDS011;24282;48.400;10.808;2023-01-13T09:20:21;1.63;;;0.80;;
38513;SDS011;24282;48.400;10.808;2023-01-13T09:22:47;1.13;;;0.57;;
38513;SDS011;24282;48.400;10.808;2023-01-13T09:25:13;2.80;;;0.80;;
38513;SDS011;24282;48.400;10.808;2023-01-13T09:27:38;1.50;;;0.80;;
38513;SDS011;24282;48.400;10.808;2023-01-13T09:30:04;2.33;;;1.13;;
38513;SDS011;24282;48.400;10.808;2023-01-13T09:32:30;1.10;;;0.50;;
38513;SDS011;24282;48.400;10.808;2023-01-13T09:37:23;1.37;;;0.60;;
38513;SDS011;24282;48.400;10.808;2023-01-13T09:39:53;2.60;;;0.90;;
38513;SDS011;24282;48.400;10.808;2023-01-13T09:53:17;0.70;;;0.47;;
38513;SDS011;24282;48.400;10.808;2023-01-13T09:55:47;6.22;;;2.72;;
38513;SDS011;24282;48.400;10.808;2023-01-13T09:58:14;1.77;;;0.93;;
38513;SDS011;24282;48.400;10.808;2023-01-13T10:00:43;0.97;;;0.70;;
38513;SDS011;24282;48.400;10.808;2023-01-13T10:03:25;0.60;;;0.50;;
38513;SDS011;24282;48.400;10.808;2023-01-13T10:06:01;1.60;;;0.60;;
38513;SDS011;24282;48.400;10.808;2023-01-13T10:08:42;1.60;;;0.60;;
38513;SDS011;24282;48.400;10.808;2023-01-13T10:11:17;1.20;;;0.43;;
38513;SDS011;24282;48.400;10.808;2023-01-13T10:14:17;2.38;;;0.85;;
38513;SDS011;24282;48.400;10.808;2023-01-13T10:19:27;2.63;;;0.53;;
38513;SDS011;24282;48.400;10.808;2023-01-13T10:29:42;0.80;;;0.43;;
38513;SDS011;24282;48.400;10.808;2023-01-13T10:32:07;1.77;;;0.73;;
38513;SDS011;24282;48.400;10.808;2023-01-13T10:34:44;4.00;;;0.63;;
38513;SDS011;24282;48.400;10.808;2023-01-13T10:37:18;1.60;;;0.93;;
38513;SDS011;24282;48.400;10.808;2023-01-13T10:39:48;1.57;;;0.80;;
38513;SDS011;24282;48.400;10.808;2023-01-13T10:42:20;1.30;;;0.67;;
38513;SDS011;24282;48.400;10.808;2023-01-13T10:44:54;2.87;;;0.50;;
38513;SDS011;24282;48.400;10.808;2023-01-13T10:47:27;1.73;;;0.70;;
38513;SDS011;24282;48.400;10.808;2023-01-13T10:49:59;2.50;;;1.08;;
38513;SDS011;24282;48.400;10.808;2023-01-13T10:52:26;1.27;;;0.63;;
38513;SDS011;24282;48.400;10.808;2023-01-13T10:54:53;2.50;;;0.80;;
38513;SDS011;24282;48.400;10.808;2023-01-13T10:57:23;0.90;;;0.60;;
38513;SDS011;24282;48.400;10.808;2023-01-13T10:59:54;1.80;;;0.80;;
38513;SDS011;24282;48.400;10.808;2023-01-13T11:02:24;1.17;;;0.70;;
38513;SDS011;24282;48.400;10.808;2023-01-13T11:13:07;0.90;;;0.60;;
38513;SDS011;24282;48.400;10.808;2023-01-13T11:21:34;2.27;;;0.70;;
38513;SDS011;24282;48.400;10.808;2023-01-13T11:30:04;1.80;;;0.47;;
38513;SDS011;24282;48.400;10.808;2023-01-13T11:32:29;1.73;;;0.80;;
38513;SDS011;24282;48.400;10.808;2023-01-13T11:34:59;1.63;;;0.70;;
38513;SDS011;24282;48.400;10.808;2023-01-13T11:37:32;1.57;;;0.80;;
38513;SDS011;24282;48.400;10.808;2023-01-13T11:40:08;1.40;;;0.60;;
38513;SDS011;24282;48.400;10.808;2023-01-13T11:45:52;2.17;;;0.60;;
38513;SDS011;24282;48.400;10.808;2023-01-13T11:48:26;1.00;;;0.40;;
38513;SDS011;24282;48.400;10.808;2023-01-13T12:13:16;0.87;;;0.30;;
38513;SDS011;24282;48.400;10.808;2023-01-13T12:16:04;1.20;;;0.40;;
38513;SDS011;24282;48.400;10.808;2023-01-13T12:23:53;0.30;;;0.30;;
38513;SDS011;24282;48.400;10.808;2023-01-13T12:26:43;0.33;;;0.20;;
38513;SDS011;24282;48.400;10.808;2023-01-13T12:29:17;0.80;;;0.30;;
38513;SDS011;24282;48.400;10.808;2023-01-13T12:31:44;0.60;;;0.40;;
38513;SDS011;24282;48.400;10.808;2023-01-13T12:39:42;0.50;;;0.40;;
38513;SDS011;24282;48.400;10.808;2023-01-13T12:45:22;1.27;;;0.50;;
38513;SDS011;24282;48.400;10.808;2023-01-13T12:47:51;0.47;;;0.47;;
38513;SDS011;24282;48.400;10.808;2023-01-13T12:52:55;1.47;;;0.57;;
38513;SDS011;24282;48.400;10.808;2023-01-13T12:55:23;0.90;;;0.53;;
38513;SDS011;24282;48.400;10.808;2023-01-13T13:00:29;1.33;;;0.47;;
38513;SDS011;24282;48.400;10.808;2023-01-13T13:03:26;0.77;;;0.63;;
38513;SDS011;24282;48.400;10.808;2023-01-13T13:08:41;1.50;;;0.60;;
38513;SDS011;24282;48.400;10.808;2023-01-13T13:14:14;1.73;;;0.80;;
38513;SDS011;24282;48.400;10.808;2023-01-13T13:17:00;0.77;;;0.50;;
38513;SDS011;24282;48.400;10.808;2023-01-13T13:24:41;1.13;;;0.50;;
38513;SDS011;24282;48.400;10.808;2023-01-13T13:30:03;0.70;;;0.70;;
38513;SDS011;24282;48.400;10.808;2023-01-13T13:41:17;1.33;;;0.70;;
38513;SDS011;24282;48.400;10.808;2023-01-13T13:44:15;2.77;;;0.80;;
38513;SDS011;24282;48.400;10.808;2023-01-13T13:47:04;1.40;;;0.50;;
38513;SDS011;24282;48.400;10.808;2023-01-13T13:49:43;0.90;;;0.63;;
38513;SDS011;24282;48.400;10.808;2023-01-13T13:54:45;2.73;;;1.40;;
38513;SDS011;24282;48.400;10.808;2023-01-13T13:57:17;1.10;;;0.60;;
38513;SDS011;24282;48.400;10.808;2023-01-13T14:00:06;2.23;;;0.93;;
38513;SDS011;24282;48.400;10.808;2023-01-13T14:02:51;1.70;;;0.70;;
38513;SDS011;24282;48.400;10.808;2023-01-13T14:05:25;1.10;;;0.70;;
38513;SDS011;24282;48.400;10.808;2023-01-13T14:08:00;2.07;;;0.90;;
38513;SDS011;24282;48.400;10.808;2023-01-13T14:10:38;1.20;;;0.60;;
38513;SDS011;24282;48.400;10.808;2023-01-13T14:15:41;2.93;;;0.90;;
38513;SDS011;24282;48.400;10.808;2023-01-13T14:18:12;2.50;;;1.00;;
38513;SDS011;24282;48.400;10.808;2023-01-13T14:20:41;3.05;;;0.95;;
38513;SDS011;24282;48.400;10.808;2023-01-13T14:23:14;1.70;;;0.80;;
38513;SDS011;24282;48.400;10.808;2023-01-13T14:25:49;1.40;;;0.80;;
38513;SDS011;24282;48.400;10.808;2023-01-13T14:28:22;2.10;;;0.60;;
38513;SDS011;24282;48.400;10.808;2023-01-13T14:30:51;2.00;;;1.00;;
38513;SDS011;24282;48.400;10.808;2023-01-13T14:33:23;3.17;;;0.87;;
38513;SDS011;24282;48.400;10.808;2023-01-13T14:36:16;1.77;;;0.80;;
38513;SDS011;24282;48.400;10.808;2023-01-13T14:38:47;2.17;;;0.70;;
38513;SDS011;24282;48.400;10.808;2023-01-13T14:41:36;6.07;;;1.90;;
38513;SDS011;24282;48.400;10.808;2023-01-13T14:44:06;9.23;;;4.38;;
38513;SDS011;24282;48.400;10.808;2023-01-13T14:46:45;4.15;;;2.40;;
38513;SDS011;24282;48.400;10.808;2023-01-13T14:51:45;4.47;;;2.07;;
38513;SDS011;24282;48.400;10.808;2023-01-13T14:57:05;0.80;;;0.60;;
38513;SDS011;24282;48.400;10.808;2023-01-13T15:00:38;2.13;;;0.88;;
38513;SDS011;24282;48.400;10.808;2023-01-13T15:02:39;3.33;;;1.10;;
38513;SDS011;24282;48.400;10.808;2023-01-13T15:10:28;3.07;;;1.10;;
38513;SDS011;24282;48.400;10.808;2023-01-13T15:12:59;1.57;;;0.70;;
38513;SDS011;24282;48.400;10.808;2023-01-13T15:15:37;3.23;;;0.83;;
38513;SDS011;24282;48.400;10.808;2023-01-13T15:18:13;2.07;;;0.80;;
38513;SDS011;24282;48.400;10.808;2023-01-13T15:20:43;3.83;;;1.10;;
38513;SDS011;24282;48.400;10.808;2023-01-13T15:23:09;5.90;;;1.20;;
38513;SDS011;24282;48.400;10.808;2023-01-13T15:25:37;4.03;;;1.30;;
38513;SDS011;24282;48.400;10.808;2023-01-13T15:28:04;5.83;;;2.40;;
38513;SDS011;24282;48.400;10.808;2023-01-13T15:30:31;4.00;;;1.23;;
38513;SDS011;24282;48.400;10.808;2023-01-13T15:32:58;5.83;;;1.43;;
38513;SDS011;24282;48.400;10.808;2023-01-13T15:35:25;2.70;;;1.00;;
38513;SDS011;24282;48.400;10.808;2023-01-13T15:37:53;3.20;;;1.10;;
38513;SDS011;24282;48.400;10.808;2023-01-13T15:40:22;3.03;;;1.10;;
38513;SDS011;24282;48.400;10.808;2023-01-13T15:42:56;2.70;;;0.77;;
38513;SDS011;24282;48.400;10.808;2023-01-13T15:45:54;3.90;;;1.30;;
38513;SDS011;24282;48.400;10.808;2023-01-13T15:48:38;2.90;;;1.00;;
38513;SDS011;24282;48.400;10.808;2023-01-13T15:51:04;1.47;;;0.97;;
38513;SDS011;24282;48.400;10.808;2023-01-13T15:53:30;4.87;;;1.20;;
38513;SDS011;24282;48.400;10.808;2023-01-13T15:55:56;3.93;;;1.10;;
38513;SDS011;24282;48.400;10.808;2023-01-13T15:58:25;3.80;;;1.20;;
38513;SDS011;24282;48.400;10.808;2023-01-13T16:00:52;4.57;;;1.00;;
38513;SDS011;24282;48.400;10.808;2023-01-13T16:03:18;4.37;;;1.60;;
38513;SDS011;24282;48.400;10.808;2023-01-13T16:05:43;5.33;;;1.43;;
38513;SDS011;24282;48.400;10.808;2023-01-13T16:08:12;5.03;;;1.10;;
38513;SDS011;24282;48.400;10.808;2023-01-13T16:10:42;3.85;;;1.08;;
38513;SDS011;24282;48.400;10.808;2023-01-13T16:13:09;6.17;;;1.20;;
38513;SDS011;24282;48.400;10.808;2023-01-13T16:15:36;3.07;;;1.30;;
38513;SDS011;24282;48.400;10.808;2023-01-13T16:18:17;5.93;;;1.30;;
38513;SDS011;24282;48.400;10.808;2023-01-13T16:20:44;4.50;;;1.10;;
38513;SDS011;24282;48.400;10.808;2023-01-13T16:23:11;5.63;;;1.37;;
38513;SDS011;24282;48.400;10.808;2023-01-13T16:25:37;4.63;;;1.90;;
38513;SDS011;24282;48.400;10.808;2023-01-13T16:28:03;5.57;;;1.70;;
38513;SDS011;24282;48.400;10.808;2023-01-13T16:30:31;3.63;;;1.80;;
38513;SDS011;24282;48.400;10.808;2023-01-13T16:32:58;3.53;;;1.80;;
38513;SDS011;24282;48.400;10.808;2023-01-13T16:35:24;3.97;;;2.60;;
38513;SDS011;24282;48.400;10.808;2023-01-13T16:37:51;11.50;;;7.30;;
38513;SDS011;24282;48.400;10.808;2023-01-13T16:40:20;7.03;;;4.57;;
38513;SDS011;24282;48.400;10.808;2023-01-13T16:42:48;7.47;;;3.50;;
38513;SDS011;24282;48.400;10.808;2023-01-13T16:45:14;5.40;;;2.90;;
38513;SDS011;24282;48.400;10.808;2023-01-13T16:47:40;4.13;;;2.20;;
38513;SDS011;24282;48.400;10.808;2023-01-13T16:50:11;3.90;;;1.90;;
38513;SDS011;24282;48.400;10.808;2023-01-13T16:53:03;4.77;;;1.90;;
38513;SDS011;24282;48.400;10.808;2023-01-13T16:55:30;5.87;;;2.40;;
38513;SDS011;24282;48.400;10.808;2023-01-13T16:57:56;5.63;;;2.90;;
38513;SDS011;24282;48.400;10.808;2023-01-13T17:00:22;9.23;;;4.63;;
38513;SDS011;24282;48.400;10.808;2023-01-13T17:02:48;10.17;;;5.00;;
38513;SDS011;24282;48.400;10.808;2023-01-13T17:05:14;10.67;;;4.70;;
38513;SDS011;24282;48.400;10.808;2023-01-13T17:07:41;7.43;;;3.40;;
38513;SDS011;24282;48.400;10.808;2023-01-13T17:10:11;4.60;;;2.90;;
38513;SDS011;24282;48.400;10.808;2023-01-13T17:12:39;6.90;;;4.30;;
38513;SDS011;24282;48.400;10.808;2023-01-13T17:15:05;6.07;;;3.40;;
38513;SDS011;24282;48.400;10.808;2023-01-13T17:17:31;8.00;;;3.03;;
38513;SDS011;24282;48.400;10.808;2023-01-13T17:19:57;5.53;;;3.30;;
38513;SDS011;24282;48.400;10.808;2023-01-13T17:22:23;5.67;;;3.43;;
38513;SDS011;24282;48.400;10.808;2023-01-13T17:24:49;7.43;;;4.40;;
38513;SDS011;24282;48.400;10.808;2023-01-13T17:27:15;6.97;;;4.80;;
38513;SDS011;24282;48.400;10.808;2023-01-13T17:29:43;8.97;;;5.87;;
38513;SDS011;24282;48.400;10.808;2023-01-13T17:32:18;7.27;;;5.63;;
38513;SDS011;24282;48.400;10.808;2023-01-13T17:34:45;9.97;;;6.90;;